Route Details

Aircraft Information
Group: North America Fleet
Types: B738, B752, B762, B763
Route Data
Distance: 723nm
Duration: 2h 25m
Origin METAR: KBWI 152354Z 27003KT 10SM FEW050 FEW140 SCT250 22/16 A2995 RMK AO2 SLP139 T02170156 10272 20217 53000
Dest. METAR: KLAL 152350Z 21005KT 10SM SKC 28/22 A2989
Freight Data
(for Aug 16, 2022)
Load Factor:
40%
Manifested Cargo: 21,801lbs
Financial History
Total Freight: 44,003lbs
Average Load: 0lbs/flt
Fuel Used: 19,271lbs
Avg. Fuel Used: 0lbs/flt
Fuel Expense: $10,599
Avg. Fuel Expense: $0
Avg. Fuel Cost: $0/lbs
Total Gross Income: $112,208
Pilot Pay: $239
Total Expenses: $22,070
Total Revenue: $78,702
Average Revenue: $0

Capitol Logistics 334




KBWI
Baltimore/Washington International Airport
Baltimore, Maryland
KLAL
Lakeland Linder Regional Airport
Lakeland, Florida

Activity Log

Date Flight Route Aircraft Duration
07/18/2022 CPX334 TERPZ7 RRSIN DCT GSO Q75 TEUFL DCT KYYUU LUBBR3 B763 2h 04m